Parkdale, Arkansas
Current Conditions -  °F | °C
As of 8:35 AM on Monday 26 Jan 2015 (Local Time) from KBQP Reporting Station
Clear Clear  
Wind Chill: 39°   Ceiling: Unl
Heat Index: 43°   Visibility: 10mi
Dew Point: 34°   Wind: 7mph
Humidity: 71%   Direction: 300°WNW
Pressure: 30.18"   Gusts: NA
Location:  33.12°N, 91.55°W
Report Text: KBQP 261435Z AUTO 30006KT 10SM CLR 06/01 A3018 RMK AO2 T00610011
Loading
Personal Weather Stations






























Interactive Weather Map New forecast layout! Learn more

10-Day Weather Forecast

Advertisements
Track Severe Weather on mobile